createdAt,value
2023-11-18T00:01:46.178Z,27.20
2023-11-18T00:04:18.960Z,28.47
2023-11-18T00:06:46.124Z,27.83
2023-11-18T00:09:15.921Z,27.87
2023-11-18T00:11:43.749Z,29.60
2023-11-18T00:14:14.367Z,30.87
2023-11-18T00:16:41.910Z,27.07
2023-11-18T00:19:10.443Z,27.30
2023-11-18T00:21:37.653Z,25.80
2023-11-18T00:24:06.215Z,24.23
2023-11-18T00:26:33.301Z,22.07
2023-11-18T00:29:01.697Z,21.83
2023-11-18T00:31:29.093Z,21.27
2023-11-18T00:33:56.149Z,20.70
2023-11-18T00:36:23.222Z,21.80
2023-11-18T00:38:50.501Z,21.37
2023-11-18T00:41:18.557Z,23.07
2023-11-18T00:43:45.806Z,22.80
2023-11-18T00:46:13.032Z,21.60
2023-11-18T00:48:40.181Z,21.43
2023-11-18T00:51:07.557Z,21.33
2023-11-18T00:53:34.835Z,20.70
2023-11-18T00:56:02.847Z,21.37
2023-11-18T00:58:30.224Z,22.37
2023-11-18T01:00:57.517Z,20.40
2023-11-18T01:03:24.553Z,19.80
2023-11-18T01:05:51.730Z,20.43
2023-11-18T01:08:19.150Z,19.03
2023-11-18T01:10:46.329Z,19.83
2023-11-18T01:13:13.227Z,18.23
2023-11-18T01:15:40.217Z,19.70
2023-11-18T01:18:07.755Z,19.23
2023-11-18T01:20:35.641Z,19.47
2023-11-18T01:23:02.424Z,19.77
2023-11-18T01:25:30.732Z,19.90
2023-11-18T01:27:57.541Z,17.93
2023-11-18T01:30:25.074Z,19.80
2023-11-18T01:32:52.081Z,19.70
2023-11-18T01:35:19.455Z,20.27
2023-11-18T01:37:46.616Z,19.17
2023-11-18T01:40:14.331Z,19.70
2023-11-18T01:42:44.282Z,19.73
2023-11-18T01:45:13.018Z,20.03
2023-11-18T01:47:41.069Z,20.37
2023-11-18T01:50:10.307Z,19.73
2023-11-18T01:52:37.418Z,18.77
2023-11-18T01:55:07.730Z,19.50
2023-11-18T01:57:35.510Z,18.70
2023-11-18T02:00:07.368Z,20.17
2023-11-18T02:02:40.945Z,19.73
2023-11-18T02:05:08.883Z,19.13
2023-11-18T02:07:39.703Z,19.63
2023-11-18T02:10:10.375Z,20.33
2023-11-18T02:12:51.930Z,19.87
2023-11-18T02:15:22.027Z,18.93
2023-11-18T02:17:51.130Z,19.53
2023-11-18T02:20:22.340Z,20.33
2023-11-18T02:22:49.322Z,18.77
2023-11-18T02:25:19.710Z,20.77
2023-11-18T02:27:47.206Z,21.60
2023-11-18T02:30:18.786Z,19.83
2023-11-18T02:32:54.930Z,21.47
2023-11-18T02:35:29.359Z,20.07
2023-11-18T02:37:58.401Z,19.10
2023-11-18T02:40:33.561Z,20.50
2023-11-18T02:43:02.179Z,20.10
2023-11-18T02:45:29.690Z,18.77
2023-11-18T02:47:58.533Z,19.67
2023-11-18T02:50:28.442Z,19.47
2023-11-18T02:52:55.342Z,17.30
2023-11-18T02:55:24.061Z,18.77
2023-11-18T02:57:52.723Z,18.43
2023-11-18T03:00:23.055Z,18.77
2023-11-18T03:02:52.619Z,19.50
2023-11-18T03:05:20.096Z,18.90
2023-11-18T03:07:50.779Z,18.80
2023-11-18T03:10:24.079Z,18.27
2023-11-18T03:12:53.641Z,18.13
2023-11-18T03:15:22.969Z,19.20
2023-11-18T03:17:51.747Z,19.73
2023-11-18T03:20:21.062Z,19.17
2023-11-18T03:22:48.570Z,18.17
2023-11-18T03:25:15.981Z,18.23
2023-11-18T03:27:43.347Z,18.43
2023-11-18T03:30:10.829Z,19.37
2023-11-18T03:32:41.136Z,17.60
2023-11-18T03:35:10.456Z,19.03
2023-11-18T03:37:40.241Z,19.00
2023-11-18T03:40:09.798Z,19.60
2023-11-18T03:42:38.094Z,18.07
2023-11-18T03:45:06.068Z,16.93
2023-11-18T03:47:33.090Z,18.83
2023-11-18T03:50:00.419Z,17.80
2023-11-18T03:52:28.702Z,18.40
2023-11-18T03:54:56.227Z,17.60
2023-11-18T03:57:23.095Z,19.63
2023-11-18T03:59:50.312Z,19.27
2023-11-18T04:02:17.120Z,19.23
2023-11-18T04:04:44.229Z,18.70
2023-11-18T04:07:10.977Z,18.37
2023-11-18T04:09:38.007Z,18.43
2023-11-18T04:12:06.450Z,17.20
2023-11-18T04:14:33.655Z,18.00
2023-11-18T04:17:01.020Z,19.03
2023-11-18T04:19:28.280Z,17.27
2023-11-18T04:21:55.425Z,17.50
2023-11-18T04:24:22.507Z,17.33
2023-11-18T04:26:50.358Z,18.77
2023-11-18T04:29:17.432Z,18.40
2023-11-18T04:31:44.255Z,17.07
2023-11-18T04:34:11.362Z,17.00
2023-11-18T04:36:38.313Z,17.70
2023-11-18T04:39:05.420Z,17.10
2023-11-18T04:41:32.816Z,17.87
2023-11-18T04:44:00.251Z,17.93
2023-11-18T04:46:27.131Z,16.77
2023-11-18T04:48:56.010Z,18.57
2023-11-18T04:51:23.593Z,20.00
2023-11-18T04:53:50.653Z,19.77
2023-11-18T04:56:19.409Z,19.63
2023-11-18T04:58:48.540Z,21.60
2023-11-18T05:01:16.014Z,20.87
2023-11-18T05:03:43.289Z,20.50
2023-11-18T05:06:10.127Z,20.53
2023-11-18T05:08:37.612Z,20.70
2023-11-18T05:11:06.189Z,20.13
2023-11-18T05:13:34.962Z,19.10
2023-11-18T05:16:02.300Z,20.63
2023-11-18T05:18:34.598Z,20.00
2023-11-18T05:21:01.743Z,20.97
2023-11-18T05:23:30.598Z,20.60
2023-11-18T05:25:57.628Z,21.23
2023-11-18T05:28:25.659Z,21.37
2023-11-18T05:30:53.421Z,21.20
2023-11-18T05:33:21.380Z,19.93
2023-11-18T05:35:51.260Z,20.97
2023-11-18T05:38:21.607Z,20.37
2023-11-18T05:40:58.399Z,22.03
2023-11-18T05:43:30.492Z,20.87
2023-11-18T05:46:17.833Z,20.93
2023-11-18T05:48:45.681Z,21.30
2023-11-18T05:51:12.832Z,21.63
2023-11-18T05:53:46.388Z,21.73
2023-11-18T05:56:14.217Z,22.60
2023-11-18T05:58:41.616Z,21.27
2023-11-18T06:01:09.052Z,21.70
2023-11-18T06:03:40.392Z,22.87
2023-11-18T06:06:12.754Z,22.20
2023-11-18T06:08:44.114Z,23.67
2023-11-18T06:11:16.056Z,22.17
2023-11-18T06:13:48.099Z,22.87
2023-11-18T06:16:27.852Z,23.53
2023-11-18T06:18:56.767Z,22.60
2023-11-18T06:21:26.195Z,23.90
2023-11-18T06:23:56.105Z,23.20
2023-11-18T06:26:23.424Z,23.17
2023-11-18T06:28:50.554Z,22.30
2023-11-18T06:31:17.475Z,23.07
2023-11-18T06:33:47.149Z,23.23
2023-11-18T06:36:23.690Z,23.37
2023-11-18T06:38:52.512Z,24.33
2023-11-18T06:41:38.048Z,22.33
2023-11-18T06:44:14.205Z,22.50
2023-11-18T06:46:41.724Z,22.40
2023-11-18T06:49:12.092Z,22.70
2023-11-18T06:51:39.658Z,24.57
2023-11-18T06:54:11.549Z,23.33
2023-11-18T06:56:46.767Z,21.83
2023-11-18T06:59:16.232Z,22.13
2023-11-18T07:01:45.639Z,22.20
2023-11-18T07:04:15.597Z,22.10
2023-11-18T07:06:44.188Z,21.07
2023-11-18T07:09:15.450Z,21.57
2023-11-18T07:11:42.399Z,22.97
2023-11-18T07:14:10.746Z,21.60
2023-11-18T07:16:42.807Z,21.43
2023-11-18T07:19:16.044Z,24.87
2023-11-18T07:21:42.950Z,24.20
2023-11-18T07:24:10.168Z,22.83
2023-11-18T07:26:37.033Z,23.63
2023-11-18T07:29:04.147Z,23.33
2023-11-18T07:31:31.022Z,22.17
2023-11-18T07:33:58.131Z,22.27
2023-11-18T07:36:25.018Z,21.20
2023-11-18T07:38:52.878Z,22.30
2023-11-18T07:41:25.739Z,23.43
2023-11-18T07:43:57.024Z,22.67
2023-11-18T07:46:24.691Z,22.67
2023-11-18T07:48:56.653Z,21.70
2023-11-18T07:51:24.177Z,21.87
2023-11-18T07:53:51.510Z,21.20
2023-11-18T07:56:18.697Z,22.53
2023-11-18T07:58:48.600Z,23.87
2023-11-18T08:01:19.134Z,24.13
2023-11-18T08:03:46.310Z,25.47
2023-11-18T08:06:13.837Z,24.77
2023-11-18T08:08:41.944Z,27.50
2023-11-18T08:11:13.230Z,27.83
2023-11-18T08:13:40.738Z,27.33
2023-11-18T08:16:09.748Z,27.60
2023-11-18T08:18:37.919Z,27.93
2023-11-18T08:21:08.043Z,29.30
2023-11-18T08:23:35.464Z,29.40
2023-11-18T08:26:02.937Z,29.57
2023-11-18T08:28:29.856Z,30.10
2023-11-18T08:30:56.960Z,30.37
2023-11-18T08:33:25.705Z,29.27
2023-11-18T08:35:53.026Z,29.43
2023-11-18T08:38:20.917Z,30.23
2023-11-18T08:40:49.752Z,27.70
2023-11-18T08:43:17.721Z,27.43
2023-11-18T08:45:46.030Z,27.27
2023-11-18T08:48:13.063Z,27.07
2023-11-18T08:50:44.421Z,28.23
2023-11-18T08:53:13.168Z,28.83
2023-11-18T08:55:41.754Z,26.60
2023-11-18T08:58:19.849Z,24.97
2023-11-18T09:00:49.784Z,24.63
2023-11-18T09:03:35.392Z,24.67
2023-11-18T09:06:06.065Z,22.47
2023-11-18T09:08:37.588Z,21.30
2023-11-18T09:11:07.395Z,19.43
2023-11-18T09:13:36.317Z,22.47
2023-11-18T09:16:11.017Z,20.07
2023-11-18T09:18:44.312Z,20.93
2023-11-18T09:21:20.742Z,19.50
2023-11-18T09:23:49.146Z,20.20
2023-11-18T09:26:17.801Z,20.90
2023-11-18T09:28:47.737Z,19.00
2023-11-18T09:31:15.828Z,17.93
2023-11-18T09:33:52.970Z,19.03
2023-11-18T09:36:21.482Z,18.53
2023-11-18T09:38:49.431Z,17.13
2023-11-18T09:41:18.041Z,18.57
2023-11-18T09:43:47.233Z,17.07
2023-11-18T09:46:24.906Z,17.87
2023-11-18T09:49:01.197Z,18.40
2023-11-18T09:51:34.231Z,18.80
2023-11-18T09:54:07.339Z,19.57
2023-11-18T09:57:11.207Z,20.70
2023-11-18T09:59:45.812Z,17.83
2023-11-18T10:02:13.764Z,19.23
2023-11-18T10:04:41.292Z,15.77
2023-11-18T10:07:08.630Z,15.00
2023-11-18T10:09:44.160Z,13.10
2023-11-18T10:12:17.706Z,13.10
2023-11-18T10:14:47.193Z,14.27
2023-11-18T10:17:16.105Z,16.07
2023-11-18T10:19:59.175Z,15.00
2023-11-18T10:22:30.916Z,15.23
2023-11-18T10:24:59.143Z,15.07
2023-11-18T10:27:27.666Z,13.77
2023-11-18T10:30:05.559Z,14.70
2023-11-18T10:32:37.039Z,13.40
2023-11-18T10:35:07.796Z,14.77
2023-11-18T10:37:40.644Z,13.40
2023-11-18T10:40:09.490Z,12.53
2023-11-18T10:42:36.528Z,13.13
2023-11-18T10:45:04.261Z,13.57
2023-11-18T10:47:39.940Z,12.00
2023-11-18T10:50:11.214Z,13.00
2023-11-18T10:52:42.177Z,13.40
2023-11-18T10:55:13.515Z,12.63
2023-11-18T10:57:43.589Z,13.27
2023-11-18T11:00:14.934Z,12.33
2023-11-18T11:02:43.167Z,12.20
2023-11-18T11:05:19.907Z,12.70
2023-11-18T11:07:50.079Z,10.35
2023-11-18T11:10:17.715Z,11.13
2023-11-18T11:12:54.200Z,10.45
2023-11-18T11:15:30.087Z,11.70
2023-11-18T11:18:10.016Z,12.70
2023-11-18T11:20:43.853Z,11.90
2023-11-18T11:23:29.509Z,10.18
2023-11-18T11:26:29.448Z,10.27
2023-11-18T11:29:10.997Z,9.30
2023-11-18T11:31:42.811Z,9.55
2023-11-18T11:34:20.232Z,9.57
2023-11-18T11:36:53.720Z,9.82
2023-11-18T11:39:27.184Z,9.03
2023-11-18T11:41:58.570Z,9.20
2023-11-18T11:44:32.940Z,9.23
2023-11-18T11:47:02.168Z,8.63
2023-11-18T11:49:46.168Z,9.57
2023-11-18T11:52:32.308Z,9.17
2023-11-18T11:55:14.175Z,8.40
2023-11-18T11:57:44.004Z,7.80
2023-11-18T12:00:18.326Z,8.23
2023-11-18T12:02:58.018Z,8.70
2023-11-18T12:05:28.060Z,8.17
2023-11-18T12:07:56.871Z,7.87
2023-11-18T12:10:33.663Z,8.10
2023-11-18T12:13:20.906Z,9.03
2023-11-18T12:15:58.155Z,8.97
2023-11-18T12:18:26.356Z,9.20
2023-11-18T12:20:57.568Z,8.87
2023-11-18T12:23:26.571Z,8.90
2023-11-18T12:25:55.830Z,8.30
2023-11-18T12:28:35.557Z,8.07
2023-11-18T12:31:14.429Z,9.00
2023-11-18T12:34:01.919Z,10.17
2023-11-18T12:36:56.435Z,9.63
2023-11-18T12:39:41.854Z,9.67
2023-11-18T12:42:20.834Z,8.87
2023-11-18T12:45:15.134Z,9.20
2023-11-18T12:47:50.128Z,9.90
2023-11-18T12:50:25.914Z,9.80
2023-11-18T12:52:53.779Z,9.60
2023-11-18T12:55:21.489Z,9.37
2023-11-18T12:57:49.457Z,10.43
2023-11-18T13:00:21.913Z,9.63
2023-11-18T13:02:50.578Z,9.70
2023-11-18T13:05:17.830Z,8.70
2023-11-18T13:07:46.075Z,8.80
2023-11-18T13:10:16.582Z,9.13
2023-11-18T13:12:46.412Z,9.43
2023-11-18T13:15:13.293Z,10.20
2023-11-18T13:17:42.024Z,10.20
2023-11-18T13:20:16.133Z,9.60
2023-11-18T13:22:48.100Z,9.20
2023-11-18T13:25:16.052Z,10.60
2023-11-18T13:27:43.199Z,10.60
2023-11-18T13:30:14.554Z,10.17
2023-11-18T13:32:43.318Z,10.10
2023-11-18T13:35:14.505Z,9.30
2023-11-18T13:37:45.333Z,10.10
2023-11-18T13:40:14.210Z,10.17
2023-11-18T13:42:43.306Z,9.33
2023-11-18T13:45:24.039Z,9.40
2023-11-18T13:48:00.640Z,10.17
2023-11-18T13:50:28.076Z,10.63
2023-11-18T13:52:55.736Z,9.70
2023-11-18T13:55:29.224Z,9.83
2023-11-18T13:57:59.098Z,10.67
2023-11-18T14:00:31.370Z,10.20
2023-11-18T14:03:05.828Z,9.93
2023-11-18T14:05:34.897Z,10.13
2023-11-18T14:08:10.578Z,10.07
2023-11-18T14:10:42.291Z,10.33
2023-11-18T14:13:18.216Z,10.40
2023-11-18T14:15:46.421Z,9.63
2023-11-18T14:18:15.239Z,10.43
2023-11-18T14:20:42.360Z,10.17
2023-11-18T14:23:09.907Z,10.17
2023-11-18T14:25:37.363Z,9.53
2023-11-18T14:28:04.978Z,10.43
2023-11-18T14:30:31.904Z,15.97
2023-11-18T14:32:59.018Z,24.30
2023-11-18T14:35:30.011Z,31.20
2023-11-18T14:37:57.924Z,26.90
2023-11-18T14:40:25.461Z,28.40
2023-11-18T14:42:53.261Z,21.13
2023-11-18T14:45:20.813Z,17.70
2023-11-18T14:47:49.140Z,17.20
2023-11-18T14:50:20.966Z,17.00
2023-11-18T14:52:50.000Z,19.20
2023-11-18T14:55:18.490Z,18.83
2023-11-18T14:57:45.998Z,16.63
2023-11-18T15:00:20.106Z,18.17
2023-11-18T15:02:51.807Z,18.03
2023-11-18T15:05:20.422Z,19.17
2023-11-18T15:07:51.154Z,22.63
2023-11-18T15:10:23.209Z,23.57
2023-11-18T15:12:54.341Z,25.80
2023-11-18T15:15:23.164Z,27.83
2023-11-18T15:17:50.850Z,19.80
2023-11-18T15:20:24.502Z,18.10
2023-11-18T15:22:51.948Z,24.00
2023-11-18T15:25:19.057Z,30.17
2023-11-18T15:27:47.005Z,32.90
2023-11-18T15:30:15.274Z,30.40
2023-11-18T15:32:44.082Z,37.50
2023-11-18T15:35:12.159Z,40.03
2023-11-18T15:37:42.679Z,35.03
2023-11-18T15:40:12.081Z,41.73
2023-11-18T15:42:40.512Z,36.80
2023-11-18T15:45:15.518Z,36.40
2023-11-18T15:47:47.201Z,29.90
2023-11-18T15:50:19.801Z,25.03
2023-11-18T15:52:50.546Z,31.53
2023-11-18T15:55:18.993Z,31.97
2023-11-18T15:57:56.379Z,29.00
2023-11-18T16:00:27.701Z,27.87
2023-11-18T16:02:59.688Z,27.03
2023-11-18T16:05:29.405Z,24.20
2023-11-18T16:07:56.883Z,25.93
2023-11-18T16:10:25.754Z,24.47
2023-11-18T16:13:00.139Z,24.90
2023-11-18T16:15:31.420Z,19.83
2023-11-18T16:17:59.701Z,19.07
2023-11-18T16:20:29.319Z,17.17
2023-11-18T16:22:58.265Z,29.53
2023-11-18T16:25:31.383Z,29.53
2023-11-18T16:28:01.211Z,25.37
2023-11-18T16:30:33.556Z,35.77
2023-11-18T16:33:08.826Z,40.63
2023-11-18T16:35:37.420Z,28.13
2023-11-18T16:38:04.930Z,24.13
2023-11-18T16:40:34.343Z,22.37
2023-11-18T16:43:02.431Z,18.77
2023-11-18T16:45:29.836Z,17.67
2023-11-18T16:47:56.998Z,16.17
2023-11-18T16:50:25.820Z,15.63
2023-11-18T16:52:53.472Z,15.20
2023-11-18T16:55:23.842Z,19.57
2023-11-18T16:57:53.989Z,19.80
2023-11-18T17:00:26.389Z,18.87
2023-11-18T17:02:59.995Z,15.87
2023-11-18T17:05:30.848Z,16.60
2023-11-18T17:07:59.059Z,14.80
2023-11-18T17:10:26.176Z,15.97
2023-11-18T17:12:53.163Z,13.60
2023-11-18T17:15:20.706Z,16.20
2023-11-18T17:17:49.532Z,15.83
2023-11-18T17:20:18.037Z,15.87
2023-11-18T17:22:45.625Z,17.37
2023-11-18T17:25:17.040Z,14.83
2023-11-18T17:27:45.796Z,16.40
2023-11-18T17:30:17.342Z,14.53
2023-11-18T17:32:46.693Z,15.13
2023-11-18T17:35:15.502Z,14.23
2023-11-18T17:37:44.504Z,14.83
2023-11-18T17:40:12.804Z,13.63
2023-11-18T17:42:40.693Z,14.30
2023-11-18T17:45:12.896Z,13.73
2023-11-18T17:47:42.958Z,15.37
2023-11-18T17:50:13.583Z,13.20
2023-11-18T17:52:42.439Z,13.50
2023-11-18T17:55:10.132Z,13.67
2023-11-18T17:57:37.410Z,14.60
2023-11-18T18:00:12.948Z,16.93
2023-11-18T18:02:48.607Z,18.27
2023-11-18T18:05:16.170Z,17.33
2023-11-18T18:07:43.964Z,17.03
2023-11-18T18:10:13.319Z,17.93
2023-11-18T18:12:42.997Z,17.97
2023-11-18T18:15:12.296Z,18.83
2023-11-18T18:17:39.490Z,15.97
2023-11-18T18:20:10.925Z,14.37
2023-11-18T18:22:39.351Z,15.77
2023-11-18T18:25:07.117Z,16.97
2023-11-18T18:27:34.770Z,17.67
2023-11-18T18:30:02.791Z,26.47
2023-11-18T18:32:30.445Z,28.73
2023-11-18T18:34:58.631Z,27.63
2023-11-18T18:37:27.662Z,28.53
2023-11-18T18:39:56.089Z,17.17
2023-11-18T18:42:23.410Z,17.17
2023-11-18T18:44:51.314Z,14.57
2023-11-18T18:47:22.068Z,15.87
2023-11-18T18:49:49.662Z,14.30
2023-11-18T18:52:16.585Z,15.03
2023-11-18T18:54:43.966Z,14.47
2023-11-18T18:57:10.764Z,14.93
2023-11-18T18:59:38.653Z,14.63
2023-11-18T19:02:06.281Z,14.13
2023-11-18T19:04:33.462Z,14.10
2023-11-18T19:07:00.706Z,14.67
2023-11-18T19:09:27.873Z,15.70
2023-11-18T19:11:54.818Z,16.73
2023-11-18T19:14:22.091Z,18.10
2023-11-18T19:16:48.896Z,20.63
2023-11-18T19:19:18.229Z,20.03
2023-11-18T19:21:45.859Z,19.57
2023-11-18T19:24:15.571Z,19.90
2023-11-18T19:26:42.695Z,20.40
2023-11-18T19:29:09.836Z,20.57
2023-11-18T19:31:37.095Z,21.00
2023-11-18T19:34:04.522Z,20.50
2023-11-18T19:36:31.709Z,23.40
2023-11-18T19:38:58.768Z,28.70
2023-11-18T19:41:25.970Z,24.63
2023-11-18T19:43:54.288Z,24.47
2023-11-18T19:46:22.221Z,30.03
2023-11-18T19:48:49.248Z,35.70
2023-11-18T19:51:16.176Z,27.50
2023-11-18T19:53:43.228Z,25.00
2023-11-18T19:56:10.713Z,16.83
2023-11-18T19:58:37.911Z,14.93
2023-11-18T20:01:04.970Z,17.50
2023-11-18T20:03:32.372Z,17.23
2023-11-18T20:05:59.459Z,17.57
2023-11-18T20:08:26.586Z,17.87
2023-11-18T20:10:53.388Z,17.47
2023-11-18T20:13:20.942Z,20.23
2023-11-18T20:15:47.776Z,21.03
2023-11-18T20:18:14.967Z,16.37
2023-11-18T20:20:41.882Z,17.07
2023-11-18T20:23:10.190Z,17.40
2023-11-18T20:25:37.161Z,18.63
2023-11-18T20:28:04.389Z,21.43
2023-11-18T20:30:31.241Z,26.73
2023-11-18T20:32:58.563Z,18.60
2023-11-18T20:35:26.282Z,17.47
2023-11-18T20:37:53.743Z,16.37
2023-11-18T20:40:24.020Z,18.27
2023-11-18T20:42:51.715Z,17.33
2023-11-18T20:45:19.905Z,17.53
2023-11-18T20:47:48.217Z,18.50
2023-11-18T20:50:16.147Z,20.13
2023-11-18T20:52:43.809Z,17.73
2023-11-18T20:55:11.133Z,17.43
2023-11-18T20:57:38.705Z,19.00
2023-11-18T21:00:08.365Z,20.13
2023-11-18T21:02:36.865Z,21.10
2023-11-18T21:05:09.583Z,21.03
2023-11-18T21:07:37.098Z,20.27
2023-11-18T21:10:05.845Z,20.13
2023-11-18T21:12:33.674Z,19.77
2023-11-18T21:15:02.999Z,18.80
2023-11-18T21:17:30.420Z,21.23
2023-11-18T21:19:57.706Z,20.50
2023-11-18T21:22:24.838Z,21.37
2023-11-18T21:24:51.969Z,22.43
2023-11-18T21:27:19.157Z,21.77
2023-11-18T21:29:47.306Z,20.47
2023-11-18T21:32:14.664Z,20.53
2023-11-18T21:34:42.087Z,21.10
2023-11-18T21:37:12.526Z,20.93
2023-11-18T21:39:42.437Z,22.00
2023-11-18T21:42:11.909Z,20.20
2023-11-18T21:44:39.451Z,21.33
2023-11-18T21:47:11.349Z,20.40
2023-11-18T21:49:38.487Z,21.80
2023-11-18T21:52:06.038Z,21.03
2023-11-18T21:54:33.817Z,20.97
2023-11-18T21:57:00.859Z,22.67
2023-11-18T21:59:27.915Z,21.47
2023-11-18T22:01:58.307Z,23.57
2023-11-18T22:04:26.448Z,21.47
2023-11-18T22:06:55.274Z,21.43
2023-11-18T22:09:24.893Z,21.00
2023-11-18T22:11:52.366Z,21.73
2023-11-18T22:14:19.191Z,21.53
2023-11-18T22:16:47.021Z,22.07
2023-11-18T22:19:16.487Z,21.57
2023-11-18T22:21:43.993Z,22.00
2023-11-18T22:24:11.107Z,21.27
2023-11-18T22:26:38.960Z,21.20
2023-11-18T22:29:06.033Z,21.03
2023-11-18T22:31:33.360Z,21.37
2023-11-18T22:34:00.211Z,20.80
2023-11-18T22:36:27.455Z,20.73
2023-11-18T22:38:54.261Z,20.47
2023-11-18T22:41:21.358Z,21.43
2023-11-18T22:43:48.724Z,18.37
2023-11-18T22:46:15.907Z,18.90
2023-11-18T22:48:46.221Z,19.07
2023-11-18T22:51:13.417Z,18.37
2023-11-18T22:53:43.650Z,18.57
2023-11-18T22:56:11.228Z,17.80
2023-11-18T22:58:40.323Z,19.07
2023-11-18T23:01:11.849Z,17.77
2023-11-18T23:03:38.987Z,21.90
2023-11-18T23:08:36.541Z,23.40
2023-11-18T23:11:04.930Z,27.70
2023-11-18T23:13:31.671Z,23.87
2023-11-18T23:16:01.762Z,36.10
2023-11-18T23:18:29.923Z,28.77
2023-11-18T23:20:58.936Z,21.70
2023-11-18T23:23:26.131Z,19.17
2023-11-18T23:25:53.323Z,20.07
2023-11-18T23:28:20.321Z,19.17
2023-11-18T23:30:47.711Z,20.10
2023-11-18T23:33:14.742Z,18.87
2023-11-18T23:35:41.925Z,23.13
2023-11-18T23:38:08.748Z,24.47
2023-11-18T23:40:36.213Z,23.73
2023-11-18T23:43:08.463Z,25.87
2023-11-18T23:45:36.155Z,22.13
2023-11-18T23:48:03.459Z,20.20
2023-11-18T23:50:32.874Z,20.77
2023-11-18T23:52:59.872Z,21.30
2023-11-18T23:55:26.942Z,19.03
2023-11-18T23:57:54.162Z,21.97
